Terminal Aerodrome Forecast
Issued by NWS

Home | Current Version | Previous Version | Text Only | Print | Product List | Glossary On
Versions: 1 2 3 4 5 6 7 8 9 10 11 12 13 14 15 16 17
000
FTUS41 KBGM 011100
TAFRME
TAF
KRME 011126Z 0112/0212 VRB03KT P6SM SCT015 OVC035
      TEMPO 0112/0114 5SM BR OVC015
     FM011600 26005KT P6SM BKN045
     FM020000 VRB03KT P6SM SCT045 BKN150=

USA.gov is the U.S. government's official web portal to all federal, state and local government web resources and services.